sensor_id;sensor_type;location;lat;lon;timestamp;P1;durP1;ratioP1;P2;durP2;ratioP2
16760;SDS011;8498;52.516;13.790;2023-04-24T00:01:34;6.60;;;4.20;;
16760;SDS011;8498;52.516;13.790;2023-04-24T00:06:59;5.60;;;4.47;;
16760;SDS011;8498;52.516;13.790;2023-04-24T00:12:22;6.87;;;4.53;;
16760;SDS011;8498;52.516;13.790;2023-04-24T00:17:44;7.37;;;4.60;;
16760;SDS011;8498;52.516;13.790;2023-04-24T00:23:06;8.17;;;5.03;;
16760;SDS011;8498;52.516;13.790;2023-04-24T00:28:29;5.73;;;4.63;;
16760;SDS011;8498;52.516;13.790;2023-04-24T00:33:51;6.77;;;4.83;;
16760;SDS011;8498;52.516;13.790;2023-04-24T00:39:13;6.43;;;5.10;;
16760;SDS011;8498;52.516;13.790;2023-04-24T00:44:36;8.30;;;4.87;;
16760;SDS011;8498;52.516;13.790;2023-04-24T00:49:58;8.57;;;4.77;;
16760;SDS011;8498;52.516;13.790;2023-04-24T00:55:21;6.13;;;4.73;;
16760;SDS011;8498;52.516;13.790;2023-04-24T01:00:44;8.57;;;4.90;;
16760;SDS011;8498;52.516;13.790;2023-04-24T01:06:07;9.17;;;5.20;;
16760;SDS011;8498;52.516;13.790;2023-04-24T01:11:31;7.77;;;4.97;;
16760;SDS011;8498;52.516;13.790;2023-04-24T01:16:54;8.83;;;5.40;;
16760;SDS011;8498;52.516;13.790;2023-04-24T01:22:16;9.00;;;5.33;;
16760;SDS011;8498;52.516;13.790;2023-04-24T01:27:38;6.97;;;5.23;;
16760;SDS011;8498;52.516;13.790;2023-04-24T01:33:01;7.73;;;5.37;;
16760;SDS011;8498;52.516;13.790;2023-04-24T01:38:24;7.90;;;5.00;;
16760;SDS011;8498;52.516;13.790;2023-04-24T01:43:47;7.27;;;4.73;;
16760;SDS011;8498;52.516;13.790;2023-04-24T01:49:11;10.07;;;5.73;;
16760;SDS011;8498;52.516;13.790;2023-04-24T01:54:33;6.13;;;4.90;;
16760;SDS011;8498;52.516;13.790;2023-04-24T01:59:56;7.03;;;5.33;;
16760;SDS011;8498;52.516;13.790;2023-04-24T02:05:19;8.30;;;5.07;;
16760;SDS011;8498;52.516;13.790;2023-04-24T02:10:41;6.30;;;4.90;;
16760;SDS011;8498;52.516;13.790;2023-04-24T02:16:04;8.93;;;5.77;;
16760;SDS011;8498;52.516;13.790;2023-04-24T02:21:26;7.20;;;4.80;;
16760;SDS011;8498;52.516;13.790;2023-04-24T02:26:49;7.67;;;5.13;;
16760;SDS011;8498;52.516;13.790;2023-04-24T02:32:11;6.43;;;5.13;;
16760;SDS011;8498;52.516;13.790;2023-04-24T02:37:34;6.53;;;4.93;;
16760;SDS011;8498;52.516;13.790;2023-04-24T02:42:57;6.60;;;5.00;;
16760;SDS011;8498;52.516;13.790;2023-04-24T02:48:19;7.97;;;5.00;;
16760;SDS011;8498;52.516;13.790;2023-04-24T02:53:42;6.40;;;4.80;;
16760;SDS011;8498;52.516;13.790;2023-04-24T02:59:05;6.87;;;5.13;;
16760;SDS011;8498;52.516;13.790;2023-04-24T03:04:28;5.47;;;4.73;;
16760;SDS011;8498;52.516;13.790;2023-04-24T03:09:51;6.83;;;4.53;;
16760;SDS011;8498;52.516;13.790;2023-04-24T03:15:13;6.83;;;4.57;;
16760;SDS011;8498;52.516;13.790;2023-04-24T03:20:35;9.30;;;5.87;;
16760;SDS011;8498;52.516;13.790;2023-04-24T03:25:59;6.80;;;4.43;;
16760;SDS011;8498;52.516;13.790;2023-04-24T03:31:21;6.63;;;5.07;;
16760;SDS011;8498;52.516;13.790;2023-04-24T03:36:44;11.60;;;5.53;;
16760;SDS011;8498;52.516;13.790;2023-04-24T03:42:09;5.60;;;4.90;;
16760;SDS011;8498;52.516;13.790;2023-04-24T03:47:43;6.10;;;5.23;;
16760;SDS011;8498;52.516;13.790;2023-04-24T03:53:06;7.43;;;5.23;;
16760;SDS011;8498;52.516;13.790;2023-04-24T03:58:32;7.80;;;4.73;;
16760;SDS011;8498;52.516;13.790;2023-04-24T04:03:55;6.70;;;4.97;;
16760;SDS011;8498;52.516;13.790;2023-04-24T04:09:19;5.07;;;4.50;;
16760;SDS011;8498;52.516;13.790;2023-04-24T04:14:42;7.40;;;4.87;;
16760;SDS011;8498;52.516;13.790;2023-04-24T04:20:04;6.00;;;5.03;;
16760;SDS011;8498;52.516;13.790;2023-04-24T04:25:34;10.27;;;5.40;;
16760;SDS011;8498;52.516;13.790;2023-04-24T04:30:56;7.27;;;5.17;;
16760;SDS011;8498;52.516;13.790;2023-04-24T04:36:19;5.93;;;5.10;;
16760;SDS011;8498;52.516;13.790;2023-04-24T04:41:46;6.33;;;5.10;;
16760;SDS011;8498;52.516;13.790;2023-04-24T04:47:13;6.33;;;5.37;;
16760;SDS011;8498;52.516;13.790;2023-04-24T04:52:36;6.77;;;5.33;;
16760;SDS011;8498;52.516;13.790;2023-04-24T04:58:17;8.33;;;5.20;;
16760;SDS011;8498;52.516;13.790;2023-04-24T05:03:42;9.70;;;4.90;;
16760;SDS011;8498;52.516;13.790;2023-04-24T05:09:07;7.40;;;4.47;;
16760;SDS011;8498;52.516;13.790;2023-04-24T05:14:37;7.07;;;4.73;;
16760;SDS011;8498;52.516;13.790;2023-04-24T05:20:01;7.73;;;5.10;;
16760;SDS011;8498;52.516;13.790;2023-04-24T05:25:25;8.27;;;5.00;;
16760;SDS011;8498;52.516;13.790;2023-04-24T05:30:55;7.20;;;4.80;;
16760;SDS011;8498;52.516;13.790;2023-04-24T05:36:19;6.63;;;4.63;;
16760;SDS011;8498;52.516;13.790;2023-04-24T05:41:42;6.60;;;4.53;;
16760;SDS011;8498;52.516;13.790;2023-04-24T05:47:05;6.87;;;4.73;;
16760;SDS011;8498;52.516;13.790;2023-04-24T05:52:28;6.67;;;4.60;;
16760;SDS011;8498;52.516;13.790;2023-04-24T05:57:50;5.97;;;4.27;;
16760;SDS011;8498;52.516;13.790;2023-04-24T06:03:12;7.07;;;4.80;;
16760;SDS011;8498;52.516;13.790;2023-04-24T06:08:35;4.83;;;4.27;;
16760;SDS011;8498;52.516;13.790;2023-04-24T06:13:58;4.13;;;3.60;;
16760;SDS011;8498;52.516;13.790;2023-04-24T06:19:32;5.90;;;3.50;;
16760;SDS011;8498;52.516;13.790;2023-04-24T06:24:55;4.90;;;2.60;;
16760;SDS011;8498;52.516;13.790;2023-04-24T06:30:18;3.67;;;2.57;;
16760;SDS011;8498;52.516;13.790;2023-04-24T06:35:43;2.60;;;2.10;;
16760;SDS011;8498;52.516;13.790;2023-04-24T06:41:05;5.30;;;2.40;;
16760;SDS011;8498;52.516;13.790;2023-04-24T06:46:28;2.97;;;2.10;;
16760;SDS011;8498;52.516;13.790;2023-04-24T06:51:51;2.40;;;2.20;;
16760;SDS011;8498;52.516;13.790;2023-04-24T06:57:13;2.93;;;2.00;;
16760;SDS011;8498;52.516;13.790;2023-04-24T07:02:36;1.87;;;1.77;;
16760;SDS011;8498;52.516;13.790;2023-04-24T07:07:59;1.90;;;1.70;;
16760;SDS011;8498;52.516;13.790;2023-04-24T07:13:23;4.07;;;1.77;;
16760;SDS011;8498;52.516;13.790;2023-04-24T07:18:45;2.50;;;1.90;;
16760;SDS011;8498;52.516;13.790;2023-04-24T07:24:08;2.33;;;1.60;;
16760;SDS011;8498;52.516;13.790;2023-04-24T07:29:34;2.10;;;1.93;;
16760;SDS011;8498;52.516;13.790;2023-04-24T07:34:57;4.90;;;1.67;;
16760;SDS011;8498;52.516;13.790;2023-04-24T07:40:20;1.63;;;1.53;;
16760;SDS011;8498;52.516;13.790;2023-04-24T07:45:43;1.33;;;1.30;;
16760;SDS011;8498;52.516;13.790;2023-04-24T07:51:05;1.27;;;1.27;;
16760;SDS011;8498;52.516;13.790;2023-04-24T07:56:28;1.50;;;1.40;;
16760;SDS011;8498;52.516;13.790;2023-04-24T08:01:53;1.53;;;1.40;;
16760;SDS011;8498;52.516;13.790;2023-04-24T08:07:15;2.67;;;1.20;;
16760;SDS011;8498;52.516;13.790;2023-04-24T08:12:39;3.37;;;1.33;;
16760;SDS011;8498;52.516;13.790;2023-04-24T08:18:02;1.07;;;1.00;;
16760;SDS011;8498;52.516;13.790;2023-04-24T08:23:24;1.30;;;1.20;;
16760;SDS011;8498;52.516;13.790;2023-04-24T08:28:47;1.63;;;1.03;;
16760;SDS011;8498;52.516;13.790;2023-04-24T08:34:09;3.60;;;1.10;;
16760;SDS011;8498;52.516;13.790;2023-04-24T08:39:32;0.90;;;0.90;;
16760;SDS011;8498;52.516;13.790;2023-04-24T08:44:54;0.80;;;0.80;;
16760;SDS011;8498;52.516;13.790;2023-04-24T08:50:20;0.50;;;0.50;;
16760;SDS011;8498;52.516;13.790;2023-04-24T08:55:43;1.65;;;0.80;;
16760;SDS011;8498;52.516;13.790;2023-04-24T09:01:09;1.75;;;0.90;;
16760;SDS011;8498;52.516;13.790;2023-04-24T09:06:33;2.10;;;0.77;;
16760;SDS011;8498;52.516;13.790;2023-04-24T09:11:56;1.95;;;0.70;;
16760;SDS011;8498;52.516;13.790;2023-04-24T09:17:19;0.60;;;0.60;;
16760;SDS011;8498;52.516;13.790;2023-04-24T09:22:42;0.55;;;0.55;;
16760;SDS011;8498;52.516;13.790;2023-04-24T09:28:05;0.60;;;0.60;;
16760;SDS011;8498;52.516;13.790;2023-04-24T09:33:29;0.98;;;0.45;;
16760;SDS011;8498;52.516;13.790;2023-04-24T09:38:53;0.85;;;0.60;;
16760;SDS011;8498;52.516;13.790;2023-04-24T09:49:43;1.25;;;1.10;;
16760;SDS011;8498;52.516;13.790;2023-04-24T09:55:16;0.60;;;0.60;;
16760;SDS011;8498;52.516;13.790;2023-04-24T10:00:41;1.80;;;0.75;;
16760;SDS011;8498;52.516;13.790;2023-04-24T10:06:03;0.90;;;0.70;;
16760;SDS011;8498;52.516;13.790;2023-04-24T10:11:32;1.95;;;1.02;;
16760;SDS011;8498;52.516;13.790;2023-04-24T10:16:55;0.85;;;0.82;;
16760;SDS011;8498;52.516;13.790;2023-04-24T10:22:20;0.77;;;0.60;;
16760;SDS011;8498;52.516;13.790;2023-04-24T10:27:44;3.17;;;1.02;;
16760;SDS011;8498;52.516;13.790;2023-04-24T10:33:08;0.90;;;0.90;;
16760;SDS011;8498;52.516;13.790;2023-04-24T10:38:30;1.43;;;1.20;;
16760;SDS011;8498;52.516;13.790;2023-04-24T10:49:29;0.88;;;0.88;;
16760;SDS011;8498;52.516;13.790;2023-04-24T10:54:53;1.00;;;1.00;;
16760;SDS011;8498;52.516;13.790;2023-04-24T11:00:20;1.08;;;1.00;;
16760;SDS011;8498;52.516;13.790;2023-04-24T11:05:50;0.88;;;0.88;;
16760;SDS011;8498;52.516;13.790;2023-04-24T11:11:18;0.98;;;0.98;;
16760;SDS011;8498;52.516;13.790;2023-04-24T11:16:52;0.90;;;0.90;;
16760;SDS011;8498;52.516;13.790;2023-04-24T11:22:17;1.60;;;1.13;;
16760;SDS011;8498;52.516;13.790;2023-04-24T11:27:42;1.52;;;0.95;;
16760;SDS011;8498;52.516;13.790;2023-04-24T11:33:05;0.63;;;0.63;;
16760;SDS011;8498;52.516;13.790;2023-04-24T11:38:28;0.98;;;0.90;;
16760;SDS011;8498;52.516;13.790;2023-04-24T11:43:50;1.20;;;1.10;;
16760;SDS011;8498;52.516;13.790;2023-04-24T11:49:14;0.93;;;0.93;;
16760;SDS011;8498;52.516;13.790;2023-04-24T11:54:37;1.52;;;0.80;;
16760;SDS011;8498;52.516;13.790;2023-04-24T12:00:03;0.77;;;0.73;;
16760;SDS011;8498;52.516;13.790;2023-04-24T12:05:33;0.88;;;0.80;;
16760;SDS011;8498;52.516;13.790;2023-04-24T12:10:56;0.77;;;0.77;;
16760;SDS011;8498;52.516;13.790;2023-04-24T12:16:19;1.20;;;1.10;;
16760;SDS011;8498;52.516;13.790;2023-04-24T12:21:42;1.50;;;1.20;;
16760;SDS011;8498;52.516;13.790;2023-04-24T12:27:04;1.33;;;1.20;;
16760;SDS011;8498;52.516;13.790;2023-04-24T12:32:27;1.42;;;1.20;;
16760;SDS011;8498;52.516;13.790;2023-04-24T12:37:49;1.08;;;0.98;;
16760;SDS011;8498;52.516;13.790;2023-04-24T12:43:19;1.23;;;1.05;;
16760;SDS011;8498;52.516;13.790;2023-04-24T12:48:42;2.13;;;0.82;;
16760;SDS011;8498;52.516;13.790;2023-04-24T12:54:04;2.17;;;1.15;;
16760;SDS011;8498;52.516;13.790;2023-04-24T12:59:28;1.70;;;0.77;;
16760;SDS011;8498;52.516;13.790;2023-04-24T13:04:50;1.00;;;1.00;;
16760;SDS011;8498;52.516;13.790;2023-04-24T13:10:13;0.70;;;0.70;;
16760;SDS011;8498;52.516;13.790;2023-04-24T13:15:36;1.45;;;0.77;;
16760;SDS011;8498;52.516;13.790;2023-04-24T13:20:58;2.80;;;0.98;;
16760;SDS011;8498;52.516;13.790;2023-04-24T13:26:21;1.63;;;0.80;;
16760;SDS011;8498;52.516;13.790;2023-04-24T13:31:44;0.75;;;0.70;;
16760;SDS011;8498;52.516;13.790;2023-04-24T13:37:06;5.35;;;0.90;;
16760;SDS011;8498;52.516;13.790;2023-04-24T13:42:30;3.83;;;0.73;;
16760;SDS011;8498;52.516;13.790;2023-04-24T13:47:52;1.88;;;0.95;;
16760;SDS011;8498;52.516;13.790;2023-04-24T13:53:18;3.13;;;0.80;;
16760;SDS011;8498;52.516;13.790;2023-04-24T13:58:41;0.95;;;0.60;;
16760;SDS011;8498;52.516;13.790;2023-04-24T14:04:03;1.73;;;0.70;;
16760;SDS011;8498;52.516;13.790;2023-04-24T14:09:26;2.10;;;1.13;;
16760;SDS011;8498;52.516;13.790;2023-04-24T14:14:48;0.90;;;0.90;;
16760;SDS011;8498;52.516;13.790;2023-04-24T14:20:12;2.10;;;0.65;;
16760;SDS011;8498;52.516;13.790;2023-04-24T14:25:34;0.60;;;0.60;;
16760;SDS011;8498;52.516;13.790;2023-04-24T14:30:57;4.57;;;1.10;;
16760;SDS011;8498;52.516;13.790;2023-04-24T14:36:19;0.70;;;0.70;;
16760;SDS011;8498;52.516;13.790;2023-04-24T14:41:41;7.40;;;1.10;;
16760;SDS011;8498;52.516;13.790;2023-04-24T14:47:04;17.40;;;1.55;;
16760;SDS011;8498;52.516;13.790;2023-04-24T14:52:27;4.20;;;0.90;;
16760;SDS011;8498;52.516;13.790;2023-04-24T14:57:50;0.90;;;0.90;;
16760;SDS011;8498;52.516;13.790;2023-04-24T15:03:12;4.25;;;0.82;;
16760;SDS011;8498;52.516;13.790;2023-04-24T15:08:35;0.73;;;0.70;;
16760;SDS011;8498;52.516;13.790;2023-04-24T15:13:58;0.68;;;0.68;;
16760;SDS011;8498;52.516;13.790;2023-04-24T15:19:20;0.80;;;0.80;;
16760;SDS011;8498;52.516;13.790;2023-04-24T15:24:42;0.80;;;0.80;;
16760;SDS011;8498;52.516;13.790;2023-04-24T15:30:05;5.70;;;1.13;;
16760;SDS011;8498;52.516;13.790;2023-04-24T15:35:28;9.38;;;1.95;;
16760;SDS011;8498;52.516;13.790;2023-04-24T15:40:50;1.23;;;0.80;;
16760;SDS011;8498;52.516;13.790;2023-04-24T15:46:13;1.30;;;1.00;;
16760;SDS011;8498;52.516;13.790;2023-04-24T15:51:35;1.48;;;1.02;;
16760;SDS011;8498;52.516;13.790;2023-04-24T15:56:58;1.00;;;1.00;;
16760;SDS011;8498;52.516;13.790;2023-04-24T16:02:22;1.45;;;1.35;;
16760;SDS011;8498;52.516;13.790;2023-04-24T16:07:45;4.63;;;1.23;;
16760;SDS011;8498;52.516;13.790;2023-04-24T16:13:07;2.70;;;1.40;;
16760;SDS011;8498;52.516;13.790;2023-04-24T16:18:30;3.10;;;1.13;;
16760;SDS011;8498;52.516;13.790;2023-04-24T16:23:53;6.18;;;1.92;;
16760;SDS011;8498;52.516;13.790;2023-04-24T16:29:16;1.10;;;1.05;;
16760;SDS011;8498;52.516;13.790;2023-04-24T16:34:38;2.05;;;1.30;;
16760;SDS011;8498;52.516;13.790;2023-04-24T16:40:00;1.40;;;1.30;;
16760;SDS011;8498;52.516;13.790;2023-04-24T16:45:25;2.65;;;1.20;;
16760;SDS011;8498;52.516;13.790;2023-04-24T16:50:47;1.63;;;1.52;;
16760;SDS011;8498;52.516;13.790;2023-04-24T16:56:09;2.45;;;1.40;;
16760;SDS011;8498;52.516;13.790;2023-04-24T17:01:32;1.20;;;1.05;;
16760;SDS011;8498;52.516;13.790;2023-04-24T17:06:54;2.15;;;1.10;;
16760;SDS011;8498;52.516;13.790;2023-04-24T17:12:17;1.95;;;1.05;;
16760;SDS011;8498;52.516;13.790;2023-04-24T17:17:39;2.35;;;1.35;;
16760;SDS011;8498;52.516;13.790;2023-04-24T17:23:05;2.95;;;1.58;;
16760;SDS011;8498;52.516;13.790;2023-04-24T17:28:28;1.60;;;1.50;;
16760;SDS011;8498;52.516;13.790;2023-04-24T17:33:52;1.07;;;0.90;;
16760;SDS011;8498;52.516;13.790;2023-04-24T17:39:14;1.80;;;1.07;;
16760;SDS011;8498;52.516;13.790;2023-04-24T17:44:37;1.00;;;1.00;;
16760;SDS011;8498;52.516;13.790;2023-04-24T17:49:59;0.80;;;0.80;;
16760;SDS011;8498;52.516;13.790;2023-04-24T17:55:22;1.70;;;1.10;;
16760;SDS011;8498;52.516;13.790;2023-04-24T18:00:47;1.10;;;1.10;;
16760;SDS011;8498;52.516;13.790;2023-04-24T18:06:09;0.97;;;0.97;;
16760;SDS011;8498;52.516;13.790;2023-04-24T18:11:32;1.70;;;0.90;;
16760;SDS011;8498;52.516;13.790;2023-04-24T18:16:56;1.67;;;1.10;;
16760;SDS011;8498;52.516;13.790;2023-04-24T18:22:19;1.70;;;1.00;;
16760;SDS011;8498;52.516;13.790;2023-04-24T18:27:41;5.17;;;3.53;;
16760;SDS011;8498;52.516;13.790;2023-04-24T18:33:04;3.20;;;1.90;;
16760;SDS011;8498;52.516;13.790;2023-04-24T18:38:26;1.90;;;1.80;;
16760;SDS011;8498;52.516;13.790;2023-04-24T18:43:48;2.37;;;2.13;;
16760;SDS011;8498;52.516;13.790;2023-04-24T18:49:12;7.67;;;3.97;;
16760;SDS011;8498;52.516;13.790;2023-04-24T18:54:35;1.50;;;1.50;;
16760;SDS011;8498;52.516;13.790;2023-04-24T18:59:57;2.93;;;2.83;;
16760;SDS011;8498;52.516;13.790;2023-04-24T19:05:20;2.30;;;0.90;;
16760;SDS011;8498;52.516;13.790;2023-04-24T19:10:42;1.17;;;0.60;;
16760;SDS011;8498;52.516;13.790;2023-04-24T19:16:07;0.70;;;0.70;;
16760;SDS011;8498;52.516;13.790;2023-04-24T19:21:29;1.13;;;1.03;;
16760;SDS011;8498;52.516;13.790;2023-04-24T19:26:52;0.60;;;0.60;;
16760;SDS011;8498;52.516;13.790;2023-04-24T19:32:15;1.27;;;0.80;;
16760;SDS011;8498;52.516;13.790;2023-04-24T19:37:37;0.87;;;0.87;;
16760;SDS011;8498;52.516;13.790;2023-04-24T19:43:00;1.73;;;0.67;;
16760;SDS011;8498;52.516;13.790;2023-04-24T19:48:22;0.73;;;0.73;;
16760;SDS011;8498;52.516;13.790;2023-04-24T19:53:44;0.97;;;0.77;;
16760;SDS011;8498;52.516;13.790;2023-04-24T19:59:07;1.13;;;0.90;;
16760;SDS011;8498;52.516;13.790;2023-04-24T20:04:29;0.60;;;0.60;;
16760;SDS011;8498;52.516;13.790;2023-04-24T20:09:52;3.13;;;1.00;;
16760;SDS011;8498;52.516;13.790;2023-04-24T20:15:15;1.00;;;0.90;;
16760;SDS011;8498;52.516;13.790;2023-04-24T20:20:37;1.00;;;1.00;;
16760;SDS011;8498;52.516;13.790;2023-04-24T20:26:02;3.03;;;1.40;;
16760;SDS011;8498;52.516;13.790;2023-04-24T20:31:26;1.50;;;1.40;;
16760;SDS011;8498;52.516;13.790;2023-04-24T20:36:49;8.60;;;1.67;;
16760;SDS011;8498;52.516;13.790;2023-04-24T20:42:11;1.20;;;1.20;;
16760;SDS011;8498;52.516;13.790;2023-04-24T20:47:34;3.23;;;1.50;;
16760;SDS011;8498;52.516;13.790;2023-04-24T20:52:57;1.50;;;1.40;;
16760;SDS011;8498;52.516;13.790;2023-04-24T20:58:19;2.53;;;1.83;;
16760;SDS011;8498;52.516;13.790;2023-04-24T21:03:43;1.83;;;1.73;;
16760;SDS011;8498;52.516;13.790;2023-04-24T21:09:06;2.10;;;1.80;;
16760;SDS011;8498;52.516;13.790;2023-04-24T21:14:29;2.27;;;2.07;;
16760;SDS011;8498;52.516;13.790;2023-04-24T21:19:52;2.20;;;2.03;;
16760;SDS011;8498;52.516;13.790;2023-04-24T21:25:14;3.37;;;1.80;;
16760;SDS011;8498;52.516;13.790;2023-04-24T21:30:36;2.00;;;1.90;;
16760;SDS011;8498;52.516;13.790;2023-04-24T21:35:59;3.20;;;2.23;;
16760;SDS011;8498;52.516;13.790;2023-04-24T21:41:22;2.07;;;1.97;;
16760;SDS011;8498;52.516;13.790;2023-04-24T21:46:46;2.93;;;2.20;;
16760;SDS011;8498;52.516;13.790;2023-04-24T21:52:08;2.90;;;1.87;;
16760;SDS011;8498;52.516;13.790;2023-04-24T21:57:31;3.97;;;1.90;;
16760;SDS011;8498;52.516;13.790;2023-04-24T22:02:53;2.23;;;2.03;;
16760;SDS011;8498;52.516;13.790;2023-04-24T22:08:15;2.93;;;2.20;;
16760;SDS011;8498;52.516;13.790;2023-04-24T22:13:38;5.00;;;2.00;;
16760;SDS011;8498;52.516;13.790;2023-04-24T22:19:01;2.57;;;1.80;;
16760;SDS011;8498;52.516;13.790;2023-04-24T22:24:23;4.20;;;2.30;;
16760;SDS011;8498;52.516;13.790;2023-04-24T22:29:45;2.57;;;2.37;;
16760;SDS011;8498;52.516;13.790;2023-04-24T22:35:08;4.23;;;2.13;;
16760;SDS011;8498;52.516;13.790;2023-04-24T22:40:31;4.57;;;2.73;;
16760;SDS011;8498;52.516;13.790;2023-04-24T22:45:55;4.10;;;2.70;;
16760;SDS011;8498;52.516;13.790;2023-04-24T22:51:18;3.90;;;2.43;;
16760;SDS011;8498;52.516;13.790;2023-04-24T22:56:40;4.07;;;2.83;;
16760;SDS011;8498;52.516;13.790;2023-04-24T23:02:03;2.87;;;2.60;;
16760;SDS011;8498;52.516;13.790;2023-04-24T23:07:26;2.63;;;2.43;;
16760;SDS011;8498;52.516;13.790;2023-04-24T23:12:49;4.10;;;3.00;;
16760;SDS011;8498;52.516;13.790;2023-04-24T23:18:12;6.70;;;3.23;;
16760;SDS011;8498;52.516;13.790;2023-04-24T23:23:34;5.33;;;3.23;;
16760;SDS011;8498;52.516;13.790;2023-04-24T23:28:57;7.20;;;3.13;;
16760;SDS011;8498;52.516;13.790;2023-04-24T23:34:19;4.80;;;3.00;;
16760;SDS011;8498;52.516;13.790;2023-04-24T23:39:41;8.17;;;3.27;;
16760;SDS011;8498;52.516;13.790;2023-04-24T23:45:04;4.40;;;3.23;;
16760;SDS011;8498;52.516;13.790;2023-04-24T23:50:27;4.77;;;2.90;;
16760;SDS011;8498;52.516;13.790;2023-04-24T23:55:49;6.97;;;2.73;;
